Flight Number: EUR3027 Duration: 7:00
Departure: John F Kennedy Int'l (KJFK) at 00:00 Distance: 3014 Nm
Arrival: Tel Aviv Ben Gurion (LLBG) at 07:00 Equipment: B777

Weather Information
KENNEDY INTERNATIONAL AIRPORT , NY, United States (KJFK) 40-38N 073-46W 9M Aug 17, 2018 - 04:51 PM EDT / 2018.08.17 2051 UTC
Wind: from the S (180 degrees) at 20 MPH (17 KT) gusting to 29 MPH (25 KT):0
Visibility: 10 mile(s):0
Sky conditions: mostly cloudy Temperature: 82.9 F (28.3 C) Dew Point: 78.1 F (25.6 C) Relative Humidity: 85% Pressure (altimeter): 29.97 in. Hg (1014 hPa) Pressure tendency: 0.06 inches (2.1 hPa) lower than three hours ago
ob: KJFK 172051Z 18017G25KT 10SM FEW045 FEW065 FEW110 BKN250 28/26 A2997 RMK AO2 PK WND 18027/2021 SLP149 T02830256 56021 cycle: 21
Sunrise: 10:11 Sunset: 23:46 (UTC)

Ben-Gurion International Airport, Israel (LLBG) 32-00N 034-54E 49M Aug 17, 2018 - 04:50 PM EDT / 2018.08.17 2050 UTC
Wind: Variable at 3 MPH (3 KT):0
Visibility: greater than 7 mile(s):0
Sky conditions: partly cloudy Temperature: 78 F (26 C) Dew Point: 69 F (21 C) Relative Humidity: 73% Pressure (altimeter): 29.80 in. Hg (1009 hPa)
ob: LLBG 172050Z VRB03KT 9999 SCT028 26/21 Q1009 NOSIG cycle: 21
Sunrise: 03:09 Sunset: 16:19 (UTC)

TAF:2018/08/17 18:06 TAF TAF LLBG 171703Z 1718/1818 VRB04KT 9999 SCT025 TEMPO 1722/1804 17005KT BKN025 BECMG 1804/1806 27010KT FEW030 FM181500 VRB04KT 9999 SCT030 TX31/1812Z TN25/1803Z

This route has never been flown.

Route map